Terminal Aerodrome Forecast
Issued by NWS

Home | Current Version | Previous Version | Graphics & Text | Print | Product List | Glossary On
Versions: 1 2 3 4 5 6 7 8 9 10 11 12 13 14 15 16 17 18 19 20
000
FTUS43 KMPX 220900 AAB
TAFAXN
TAF AMD
KAXN 220902Z 2209/2306 00000KT 5SM BR OVC008
     FM221030 00000KT 3SM BR OVC004
     FM221400 01005KT P6SM OVC006
     FM221700 36005KT P6SM BKN015
     FM221900 03005KT P6SM SCT150=

USA.gov is the U.S. government's official web portal to all federal, state and local government web resources and services.